sensor_id;sensor_type;location;lat;lon;timestamp;temperature;humidity
16060;DHT22;8134;49.552;7.632;2023-02-26T10:27:56;2.20;97.50
16060;DHT22;8134;49.552;7.632;2023-02-26T10:30:32;2.40;98.60
16060;DHT22;8134;49.552;7.632;2023-02-26T10:33:06;2.50;97.60
16060;DHT22;8134;49.552;7.632;2023-02-26T10:35:41;2.60;97.20
16060;DHT22;8134;49.552;7.632;2023-02-26T10:38:10;2.70;95.50
16060;DHT22;8134;49.552;7.632;2023-02-26T10:43:10;3.10;95.90
16060;DHT22;8134;49.552;7.632;2023-02-26T10:48:45;3.50;94.70
16060;DHT22;8134;49.552;7.632;2023-02-26T10:51:15;3.50;94.40
16060;DHT22;8134;49.552;7.632;2023-02-26T10:53:42;3.60;93.80
16060;DHT22;8134;49.552;7.632;2023-02-26T10:56:13;3.50;94.00
16060;DHT22;8134;49.552;7.632;2023-02-26T10:58:43;3.60;94.50
16060;DHT22;8134;49.552;7.632;2023-02-26T11:01:12;3.50;93.00
16060;DHT22;8134;49.552;7.632;2023-02-26T11:03:46;3.60;93.40
16060;DHT22;8134;49.552;7.632;2023-02-26T11:07:13;3.80;93.90
16060;DHT22;8134;49.552;7.632;2023-02-26T11:11:54;3.70;92.50
16060;DHT22;8134;49.552;7.632;2023-02-26T11:14:23;3.60;92.80
16060;DHT22;8134;49.552;7.632;2023-02-26T11:16:53;3.50;92.60
16060;DHT22;8134;49.552;7.632;2023-02-26T11:19:23;3.50;92.60
16060;DHT22;8134;49.552;7.632;2023-02-26T11:21:49;3.60;93.10
16060;DHT22;8134;49.552;7.632;2023-02-26T11:24:28;3.70;92.50
16060;DHT22;8134;49.552;7.632;2023-02-26T11:26:55;3.80;93.10
16060;DHT22;8134;49.552;7.632;2023-02-26T11:29:22;4.00;92.20
16060;DHT22;8134;49.552;7.632;2023-02-26T11:31:49;3.90;92.30
16060;DHT22;8134;49.552;7.632;2023-02-26T11:34:25;4.00;92.10
16060;DHT22;8134;49.552;7.632;2023-02-26T11:36:58;3.90;92.10
16060;DHT22;8134;49.552;7.632;2023-02-26T11:39:25;4.00;92.30
16060;DHT22;8134;49.552;7.632;2023-02-26T11:41:58;4.00;92.70
16060;DHT22;8134;49.552;7.632;2023-02-26T11:44:33;4.00;92.30
16060;DHT22;8134;49.552;7.632;2023-02-26T11:47:02;3.90;91.40
16060;DHT22;8134;49.552;7.632;2023-02-26T12:57:51;4.20;90.20
16060;DHT22;8134;49.552;7.632;2023-02-26T13:00:43;4.10;90.00
16060;DHT22;8134;49.552;7.632;2023-02-26T13:13:02;4.20;90.20
16060;DHT22;8134;49.552;7.632;2023-02-26T13:18:05;4.10;90.30
16060;DHT22;8134;49.552;7.632;2023-02-26T13:20:33;4.20;90.00
16060;DHT22;8134;49.552;7.632;2023-02-26T13:27:53;4.20;88.30
16060;DHT22;8134;49.552;7.632;2023-02-26T13:32:44;4.30;88.60
16060;DHT22;8134;49.552;7.632;2023-02-26T13:37:41;4.30;87.90
16060;DHT22;8134;49.552;7.632;2023-02-26T13:45:27;4.20;89.30
16060;DHT22;8134;49.552;7.632;2023-02-26T13:48:15;4.10;87.80
16060;DHT22;8134;49.552;7.632;2023-02-26T13:50:48;4.20;89.00
16060;DHT22;8134;49.552;7.632;2023-02-26T13:58:37;4.40;88.60
16060;DHT22;8134;49.552;7.632;2023-02-26T14:01:13;4.50;88.40
16060;DHT22;8134;49.552;7.632;2023-02-26T14:03:40;4.50;88.00
16060;DHT22;8134;49.552;7.632;2023-02-26T14:08:45;4.30;88.50
16060;DHT22;8134;49.552;7.632;2023-02-26T14:13:42;4.40;90.00
16060;DHT22;8134;49.552;7.632;2023-02-26T14:16:27;4.40;90.00
16060;DHT22;8134;49.552;7.632;2023-02-26T14:19:01;4.30;87.70
16060;DHT22;8134;49.552;7.632;2023-02-26T14:21:35;4.20;87.80
16060;DHT22;8134;49.552;7.632;2023-02-26T14:24:03;4.10;88.20
16060;DHT22;8134;49.552;7.632;2023-02-26T14:26:31;4.00;87.60
16060;DHT22;8134;49.552;7.632;2023-02-26T14:31:45;4.10;88.70
16060;DHT22;8134;49.552;7.632;2023-02-26T14:34:15;4.20;90.20
16060;DHT22;8134;49.552;7.632;2023-02-26T14:36:48;4.30;89.00
16060;DHT22;8134;49.552;7.632;2023-02-26T14:39:22;4.40;90.00
16060;DHT22;8134;49.552;7.632;2023-02-26T14:41:49;4.30;88.40
16060;DHT22;8134;49.552;7.632;2023-02-26T14:44:18;4.30;90.10
16060;DHT22;8134;49.552;7.632;2023-02-26T14:46:45;4.30;90.00
16060;DHT22;8134;49.552;7.632;2023-02-26T14:49:28;4.20;88.30
16060;DHT22;8134;49.552;7.632;2023-02-26T14:57:09;4.30;88.80
16060;DHT22;8134;49.552;7.632;2023-02-26T14:59:50;4.30;89.40
16060;DHT22;8134;49.552;7.632;2023-02-26T15:04:47;4.30;89.40
16060;DHT22;8134;49.552;7.632;2023-02-26T15:15:02;4.20;89.20
16060;DHT22;8134;49.552;7.632;2023-02-26T15:17:35;4.20;88.90
16060;DHT22;8134;49.552;7.632;2023-02-26T15:25:38;4.10;90.10
16060;DHT22;8134;49.552;7.632;2023-02-26T15:28:04;4.00;89.40
16060;DHT22;8134;49.552;7.632;2023-02-26T15:30:31;4.00;90.40
16060;DHT22;8134;49.552;7.632;2023-02-26T15:32:57;3.90;90.70
16060;DHT22;8134;49.552;7.632;2023-02-26T15:35:25;3.90;90.70
16060;DHT22;8134;49.552;7.632;2023-02-26T15:37:52;3.90;90.80
16060;DHT22;8134;49.552;7.632;2023-02-26T15:40:18;3.90;90.80
16060;DHT22;8134;49.552;7.632;2023-02-26T15:42:44;3.90;91.30
16060;DHT22;8134;49.552;7.632;2023-02-26T15:45:25;4.00;91.10
16060;DHT22;8134;49.552;7.632;2023-02-26T15:47:55;4.00;91.20
16060;DHT22;8134;49.552;7.632;2023-02-26T15:50:26;4.10;91.80
16060;DHT22;8134;49.552;7.632;2023-02-26T15:52:54;4.10;91.20
16060;DHT22;8134;49.552;7.632;2023-02-26T15:55:20;4.00;90.90
16060;DHT22;8134;49.552;7.632;2023-02-26T15:57:46;4.10;91.10
16060;DHT22;8134;49.552;7.632;2023-02-26T16:00:14;4.10;91.90
16060;DHT22;8134;49.552;7.632;2023-02-26T16:02:41;4.20;90.90
16060;DHT22;8134;49.552;7.632;2023-02-26T16:05:07;4.10;90.90
16060;DHT22;8134;49.552;7.632;2023-02-26T16:07:33;4.00;91.00
16060;DHT22;8134;49.552;7.632;2023-02-26T16:10:03;3.90;91.10
16060;DHT22;8134;49.552;7.632;2023-02-26T16:12:33;4.00;92.30
16060;DHT22;8134;49.552;7.632;2023-02-26T16:15:02;4.00;91.50
16060;DHT22;8134;49.552;7.632;2023-02-26T16:17:37;4.00;91.80
16060;DHT22;8134;49.552;7.632;2023-02-26T16:20:05;3.90;91.50
16060;DHT22;8134;49.552;7.632;2023-02-26T16:23:05;3.80;91.80
16060;DHT22;8134;49.552;7.632;2023-02-26T16:25:24;3.80;92.10
16060;DHT22;8134;49.552;7.632;2023-02-26T16:30:44;3.60;92.00
16060;DHT22;8134;49.552;7.632;2023-02-26T16:33:12;3.60;92.20
16060;DHT22;8134;49.552;7.632;2023-02-26T16:35:42;3.60;92.10
16060;DHT22;8134;49.552;7.632;2023-02-26T16:38:16;3.60;91.80
16060;DHT22;8134;49.552;7.632;2023-02-26T16:40:43;3.50;92.30
16060;DHT22;8134;49.552;7.632;2023-02-26T16:43:28;3.40;91.50
16060;DHT22;8134;49.552;7.632;2023-02-26T16:45:58;3.40;91.00
16060;DHT22;8134;49.552;7.632;2023-02-26T16:48:29;3.30;90.80
16060;DHT22;8134;49.552;7.632;2023-02-26T16:53:21;3.40;91.20
16060;DHT22;8134;49.552;7.632;2023-02-26T16:55:51;3.50;91.60
16060;DHT22;8134;49.552;7.632;2023-02-26T16:58:17;3.50;91.30
16060;DHT22;8134;49.552;7.632;2023-02-26T17:00:43;3.60;91.80
16060;DHT22;8134;49.552;7.632;2023-02-26T17:03:10;3.50;90.80
16060;DHT22;8134;49.552;7.632;2023-02-26T17:05:37;3.50;90.90
16060;DHT22;8134;49.552;7.632;2023-02-26T17:10:34;3.50;93.00
16060;DHT22;8134;49.552;7.632;2023-02-26T17:13:05;3.40;91.10
16060;DHT22;8134;49.552;7.632;2023-02-26T17:15:36;3.40;91.20
16060;DHT22;8134;49.552;7.632;2023-02-26T17:18:03;3.30;90.80
16060;DHT22;8134;49.552;7.632;2023-02-26T17:20:29;3.30;91.80
16060;DHT22;8134;49.552;7.632;2023-02-26T17:22:54;3.20;90.00
16060;DHT22;8134;49.552;7.632;2023-02-26T17:25:21;3.10;90.20
16060;DHT22;8134;49.552;7.632;2023-02-26T17:27:49;3.10;90.40
16060;DHT22;8134;49.552;7.632;2023-02-26T17:30:17;3.10;90.10
16060;DHT22;8134;49.552;7.632;2023-02-26T17:32:43;3.00;90.20
16060;DHT22;8134;49.552;7.632;2023-02-26T17:35:12;3.00;89.90
16060;DHT22;8134;49.552;7.632;2023-02-26T17:37:38;2.90;89.60
16060;DHT22;8134;49.552;7.632;2023-02-26T17:40:05;2.90;89.20
16060;DHT22;8134;49.552;7.632;2023-02-26T17:42:39;2.90;89.40
16060;DHT22;8134;49.552;7.632;2023-02-26T17:45:04;2.90;90.10
16060;DHT22;8134;49.552;7.632;2023-02-26T17:47:30;2.90;89.40
16060;DHT22;8134;49.552;7.632;2023-02-26T17:49:56;2.80;88.00
16060;DHT22;8134;49.552;7.632;2023-02-26T17:52:21;2.90;90.80
16060;DHT22;8134;49.552;7.632;2023-02-26T17:54:47;2.90;89.90
16060;DHT22;8134;49.552;7.632;2023-02-26T17:57:16;2.90;89.60
16060;DHT22;8134;49.552;7.632;2023-02-26T17:59:42;2.80;90.10
16060;DHT22;8134;49.552;7.632;2023-02-26T18:02:15;2.80;90.40
16060;DHT22;8134;49.552;7.632;2023-02-26T18:04:41;2.80;89.10
16060;DHT22;8134;49.552;7.632;2023-02-26T18:07:07;2.70;90.10
16060;DHT22;8134;49.552;7.632;2023-02-26T18:09:33;2.80;90.20
16060;DHT22;8134;49.552;7.632;2023-02-26T18:11:58;2.70;90.10
16060;DHT22;8134;49.552;7.632;2023-02-26T18:14:24;2.80;90.40
16060;DHT22;8134;49.552;7.632;2023-02-26T18:16:49;2.90;88.90
16060;DHT22;8134;49.552;7.632;2023-02-26T18:19:15;2.80;89.50
16060;DHT22;8134;49.552;7.632;2023-02-26T18:21:40;2.80;89.40
16060;DHT22;8134;49.552;7.632;2023-02-26T18:24:06;2.70;88.50
16060;DHT22;8134;49.552;7.632;2023-02-26T18:26:31;2.70;89.90
16060;DHT22;8134;49.552;7.632;2023-02-26T18:28:57;2.70;90.00
16060;DHT22;8134;49.552;7.632;2023-02-26T18:31:23;2.80;90.00
16060;DHT22;8134;49.552;7.632;2023-02-26T18:33:51;2.80;89.40
16060;DHT22;8134;49.552;7.632;2023-02-26T18:36:19;2.80;89.70
16060;DHT22;8134;49.552;7.632;2023-02-26T18:38:46;2.80;89.00
16060;DHT22;8134;49.552;7.632;2023-02-26T18:41:11;2.70;89.60
16060;DHT22;8134;49.552;7.632;2023-02-26T18:43:37;2.70;88.90
16060;DHT22;8134;49.552;7.632;2023-02-26T18:46:02;2.60;89.90
16060;DHT22;8134;49.552;7.632;2023-02-26T18:48:28;2.60;90.30
16060;DHT22;8134;49.552;7.632;2023-02-26T18:50:53;2.50;90.10
16060;DHT22;8134;49.552;7.632;2023-02-26T18:53:23;2.60;90.80
16060;DHT22;8134;49.552;7.632;2023-02-26T18:55:50;2.60;90.50
16060;DHT22;8134;49.552;7.632;2023-02-26T18:58:17;2.70;91.90
16060;DHT22;8134;49.552;7.632;2023-02-26T19:00:42;2.70;90.50
16060;DHT22;8134;49.552;7.632;2023-02-26T19:03:08;2.80;91.40
16060;DHT22;8134;49.552;7.632;2023-02-26T19:05:34;2.80;91.50
16060;DHT22;8134;49.552;7.632;2023-02-26T19:07:59;2.90;92.30
16060;DHT22;8134;49.552;7.632;2023-02-26T19:10:25;3.00;92.50
16060;DHT22;8134;49.552;7.632;2023-02-26T19:12:53;3.10;92.30
16060;DHT22;8134;49.552;7.632;2023-02-26T19:15:19;3.00;90.80
16060;DHT22;8134;49.552;7.632;2023-02-26T19:17:44;3.00;90.20
16060;DHT22;8134;49.552;7.632;2023-02-26T19:20:10;3.00;90.40
16060;DHT22;8134;49.552;7.632;2023-02-26T19:22:37;3.00;90.70
16060;DHT22;8134;49.552;7.632;2023-02-26T19:25:02;3.00;90.40
16060;DHT22;8134;49.552;7.632;2023-02-26T19:27:28;3.00;90.90
16060;DHT22;8134;49.552;7.632;2023-02-26T19:29:54;2.90;89.90
16060;DHT22;8134;49.552;7.632;2023-02-26T19:32:19;2.80;90.40
16060;DHT22;8134;49.552;7.632;2023-02-26T19:34:45;2.80;90.90
16060;DHT22;8134;49.552;7.632;2023-02-26T19:37:10;2.70;90.30
16060;DHT22;8134;49.552;7.632;2023-02-26T19:39:36;2.70;90.30
16060;DHT22;8134;49.552;7.632;2023-02-26T19:42:02;2.60;90.20
16060;DHT22;8134;49.552;7.632;2023-02-26T19:44:27;2.50;90.40
16060;DHT22;8134;49.552;7.632;2023-02-26T19:46:53;2.50;90.50
16060;DHT22;8134;49.552;7.632;2023-02-26T19:49:18;2.50;90.40
16060;DHT22;8134;49.552;7.632;2023-02-26T19:51:44;2.40;90.40
16060;DHT22;8134;49.552;7.632;2023-02-26T19:54:09;2.50;92.90
16060;DHT22;8134;49.552;7.632;2023-02-26T19:56:36;2.50;92.00
16060;DHT22;8134;49.552;7.632;2023-02-26T19:59:02;2.40;90.90
16060;DHT22;8134;49.552;7.632;2023-02-26T20:01:28;2.30;91.80
16060;DHT22;8134;49.552;7.632;2023-02-26T20:03:53;2.30;90.60
16060;DHT22;8134;49.552;7.632;2023-02-26T20:06:19;2.20;92.00
16060;DHT22;8134;49.552;7.632;2023-02-26T20:08:45;2.20;90.90
16060;DHT22;8134;49.552;7.632;2023-02-26T20:11:11;2.30;91.60
16060;DHT22;8134;49.552;7.632;2023-02-26T20:13:36;2.40;92.00
16060;DHT22;8134;49.552;7.632;2023-02-26T20:16:03;2.40;91.90
16060;DHT22;8134;49.552;7.632;2023-02-26T20:18:30;2.40;93.00
16060;DHT22;8134;49.552;7.632;2023-02-26T20:20:58;2.40;93.10
16060;DHT22;8134;49.552;7.632;2023-02-26T20:23:24;2.20;91.60
16060;DHT22;8134;49.552;7.632;2023-02-26T20:25:52;2.30;91.90
16060;DHT22;8134;49.552;7.632;2023-02-26T20:28:18;2.20;92.50
16060;DHT22;8134;49.552;7.632;2023-02-26T20:30:44;2.20;93.40
16060;DHT22;8134;49.552;7.632;2023-02-26T20:33:10;2.10;91.60
16060;DHT22;8134;49.552;7.632;2023-02-26T20:35:36;2.00;91.30
16060;DHT22;8134;49.552;7.632;2023-02-26T20:38:01;2.00;92.60
16060;DHT22;8134;49.552;7.632;2023-02-26T20:40:27;1.90;92.00
16060;DHT22;8134;49.552;7.632;2023-02-26T20:42:52;1.90;91.90
16060;DHT22;8134;49.552;7.632;2023-02-26T20:45:18;1.90;92.20
16060;DHT22;8134;49.552;7.632;2023-02-26T20:47:43;2.00;93.50
16060;DHT22;8134;49.552;7.632;2023-02-26T20:50:09;1.90;92.40
16060;DHT22;8134;49.552;7.632;2023-02-26T20:52:35;1.90;93.50
16060;DHT22;8134;49.552;7.632;2023-02-26T20:55:00;1.90;93.30
16060;DHT22;8134;49.552;7.632;2023-02-26T20:57:26;1.90;94.00
16060;DHT22;8134;49.552;7.632;2023-02-26T20:59:51;1.90;93.20
16060;DHT22;8134;49.552;7.632;2023-02-26T21:02:17;1.70;93.70
16060;DHT22;8134;49.552;7.632;2023-02-26T21:04:45;1.70;92.30
16060;DHT22;8134;49.552;7.632;2023-02-26T21:07:10;1.70;92.70
16060;DHT22;8134;49.552;7.632;2023-02-26T21:09:49;1.70;92.20
16060;DHT22;8134;49.552;7.632;2023-02-26T21:12:16;1.70;92.40
16060;DHT22;8134;49.552;7.632;2023-02-26T21:14:41;1.60;93.20
16060;DHT22;8134;49.552;7.632;2023-02-26T21:17:07;1.60;92.80
16060;DHT22;8134;49.552;7.632;2023-02-26T21:19:32;1.40;93.90
16060;DHT22;8134;49.552;7.632;2023-02-26T21:21:58;1.40;92.60
